< < Back
Terminal Aerodrome Forecast


Current Version              Previous Versions:   1  2  3  4  5  6  7  8  9  

Terminal Aerodrome Forecast

184
FTUS42 KFFC 011047 AAB
TAFPDK
TAF AMD
KPDK 011047Z 0111/0206 17003KT 3SM BR BKN004 BKN090
     FM011300 21004KT P6SM BKN015
     FM011600 23007KT P6SM VCSH BKN025
     FM011700 23009KT 4SM -TSRA BKN030CB
     FM012000 23006KT P6SM VCSH OVC040=

Latest METAR

427
SAUS70 KWBC 011500 RRS
MTRPDK
METAR KPDK 011453Z 25007KT 10SM FEW019 BKN055 24/20 A3005 RMK AO2 SLP161
T02440200 51005


USA.gov is the U.S. government's official web portal to all federal, state and local government web resources and services.